Time;durP1;ratioP1;P1;durP2;ratioP2;P2;SDS_P1;SDS_P2;PMS_P1;PMS_P2;Temp;Humidity;BMP_temperature;BMP_pressure;BME280_temperature;BME280_humidity;BME280_pressure;Samples;Min_cycle;Max_cycle;Signal;HPM_P1;HPM_P2
2023/06/09 00:01:35;;;;;;;;;;;;;;;;;;7368903;19;1325;-66
2023/06/09 00:04:03;;;;;;;;;;;;;;;;;;7369960;19;780;-68
2023/06/09 00:06:33;;;;;;;;;;;;;;;;;;7372221;19;802;-66
2023/06/09 00:09:01;;;;;;;;;;;;;;;;;;7369222;19;955;-65
2023/06/09 00:11:29;;;;;;;;;;;;;;;;;;7368587;19;1341;-65
2023/06/09 00:13:57;;;;;;;;;;;;;;;;;;7368960;19;803;-64
2023/06/09 00:16:26;;;;;;;;;;;;;;;;;;7367526;19;1849;-65
2023/06/09 00:18:57;;;;;;;;;;;;;;;;;;7369205;19;902;-65
2023/06/09 00:21:25;;;;;;;;;;;;;;;;;;7367984;19;1285;-66
2023/06/09 00:23:55;;;;;;;;;;;;;;;;;;7371369;19;866;-64
2023/06/09 00:26:23;;;;;;;;;;;;;;;;;;7369452;19;754;-64
2023/06/09 00:28:52;;;;;;;;;;;;;;;;;;7368284;19;843;-64
2023/06/09 00:31:20;;;;;;;;;;;;;;;;;;7368038;19;1244;-65
2023/06/09 00:33:49;;;;;;;;;;;;;;;;;;7372136;19;2007;-65
2023/06/09 00:36:17;;;;;;;;;;;;;;;;;;7365813;19;1837;-66
2023/06/09 00:38:45;;;;;;;;;;;;;;;;;;7366558;19;798;-65
2023/06/09 00:41:14;;;;;;;;;;;;;;;;;;7371161;19;1325;-65
2023/06/09 00:43:43;;;;;;;;;;;;;;;;;;7368005;19;849;-66
2023/06/09 00:46:11;;;;;;;;;;;;;;;;;;7367663;19;807;-66
2023/06/09 00:48:39;;;;;;;;;;;;;;;;;;7366694;19;775;-66
2023/06/09 00:51:08;;;;;;;;;;;;;;;;;;7366472;19;1376;-67
2023/06/09 00:53:36;;;;;;;;;;;;;;;;;;7366787;19;840;-67
2023/06/09 00:56:04;;;;;;;;;;;;;;;;;;7368025;19;1837;-66
2023/06/09 00:58:32;;;;;;;;;;;;;;;;;;7370967;19;810;-66
2023/06/09 01:01:00;;;;;;;;;;;;;;;;;;7366917;19;1359;-67
2023/06/09 01:03:32;;;;;;;;;;;;;;;;;;7366997;19;883;-65
2023/06/09 01:06:02;;;;;;;;;;;;;;;;;;7366384;19;803;-66
2023/06/09 01:08:32;;;;;;;;;;;;;;;;;;7367376;19;851;-67
2023/06/09 01:11:00;;;;;;;;;;;;;;;;;;7366114;19;1332;-66
2023/06/09 01:13:28;;;;;;;;;;;;;;;;;;7367402;19;775;-66
2023/06/09 01:15:56;;;;;;;;;;;;;;;;;;7369618;19;1853;-67
2023/06/09 01:18:27;;;;;;;;;;;;;;;;;;7363776;19;1106;-66
2023/06/09 01:20:56;;;;;;;;;;;;;;;;;;7370855;19;1810;-66
2023/06/09 01:23:25;;;;;;;;;;;;;;;;;;7368384;19;910;-66
2023/06/09 01:25:54;;;;;;;;;;;;;;;;;;7367948;19;885;-65
2023/06/09 01:28:23;;;;;;;;;;;;;;;;;;7367260;19;810;-66
2023/06/09 01:30:51;;;;;;;;;;;;;;;;;;7366948;19;1294;-67
2023/06/09 01:33:19;;;;;;;;;;;;;;;;;;7366705;19;857;-66
2023/06/09 01:35:47;;;;;;;;;;;;;;;;;;7365985;19;1850;-65
2023/06/09 01:38:16;;;;;;;;;;;;;;;;;;7365777;19;795;-66
2023/06/09 01:40:44;;;;;;;;;;;;;;;;;;7367458;19;1249;-66
2023/06/09 01:43:12;;;;;;;;;;;;;;;;;;7367517;19;768;-67
2023/06/09 01:45:40;;;;;;;;;;;;;;;;;;7367783;19;849;-66
2023/06/09 01:48:08;;;;;;;;;;;;;;;;;;7367052;19;930;-67
2023/06/09 01:50:37;;;;;;;;;;;;;;;;;;7366291;19;1269;-67
2023/06/09 01:53:05;;;;;;;;;;;;;;;;;;7366959;19;833;-67
2023/06/09 01:55:33;;;;;;;;;;;;;;;;;;7365372;19;1841;-67
2023/06/09 01:58:01;;;;;;;;;;;;;;;;;;7363167;19;817;-66
2023/06/09 02:00:29;;;;;;;;;;;;;;;;;;7366135;19;1369;-66
2023/06/09 02:02:58;;;;;;;;;;;;;;;;;;7368734;19;798;-65
2023/06/09 02:05:27;;;;;;;;;;;;;;;;;;7368357;19;940;-65
2023/06/09 02:07:56;;;;;;;;;;;;;;;;;;7365856;19;870;-65
2023/06/09 02:10:25;;;;;;;;;;;;;;;;;;7366690;19;861;-66
2023/06/09 02:12:54;;;;;;;;;;;;;;;;;;7366688;19;768;-67
2023/06/09 02:15:22;;;;;;;;;;;;;;;;;;7367546;19;1826;-68
2023/06/09 02:17:50;;;;;;;;;;;;;;;;;;7367676;19;796;-65
2023/06/09 02:20:21;;;;;;;;;;;;;;;;;;7367716;19;1629;-66
2023/06/09 02:22:49;;;;;;;;;;;;;;;;;;7365776;19;1243;-66
2023/06/09 02:25:17;;;;;;;;;;;;;;;;;;7365122;19;854;-66
2023/06/09 02:27:46;;;;;;;;;;;;;;;;;;7367073;19;846;-65
2023/06/09 02:30:14;;;;;;;;;;;;;;;;;;7366935;19;890;-66
2023/06/09 02:32:42;;;;;;;;;;;;;;;;;;7364247;19;1313;-66
2023/06/09 02:35:10;;;;;;;;;;;;;;;;;;7367127;19;839;-66
2023/06/09 02:37:41;;;;;;;;;;;;;;;;;;7362632;19;1842;-64
2023/06/09 02:40:10;;;;;;;;;;;;;;;;;;7370222;19;994;-65
2023/06/09 02:42:39;;;;;;;;;;;;;;;;;;7364329;19;1319;-66
2023/06/09 02:45:07;;;;;;;;;;;;;;;;;;7365364;19;1110;-66
2023/06/09 02:47:36;;;;;;;;;;;;;;;;;;7365928;19;965;-66
2023/06/09 02:50:04;;;;;;;;;;;;;;;;;;7366041;19;806;-66
2023/06/09 02:52:32;;;;;;;;;;;;;;;;;;7361063;19;1302;-66
2023/06/09 02:55:01;;;;;;;;;;;;;;;;;;7366017;19;847;-65
2023/06/09 02:57:29;;;;;;;;;;;;;;;;;;7367023;19;1858;-65
2023/06/09 02:59:58;;;;;;;;;;;;;;;;;;7364797;19;872;-65
2023/06/09 03:02:26;;;;;;;;;;;;;;;;;;7363797;19;1298;-65
2023/06/09 03:04:55;;;;;;;;;;;;;;;;;;7363682;19;877;-64
2023/06/09 03:07:23;;;;;;;;;;;;;;;;;;7365891;19;778;-65
2023/06/09 03:09:52;;;;;;;;;;;;;;;;;;7363821;19;752;-66
2023/06/09 03:12:20;;;;;;;;;;;;;;;;;;7361288;19;1316;-65
2023/06/09 03:14:49;;;;;;;;;;;;;;;;;;7369201;19;835;-64
2023/06/09 03:17:17;;;;;;;;;;;;;;;;;;7361544;19;1842;-67
2023/06/09 03:19:46;;;;;;;;;;;;;;;;;;7366158;19;1805;-65
2023/06/09 03:22:15;;;;;;;;;;;;;;;;;;7361871;19;1367;-67
2023/06/09 03:24:45;;;;;;;;;;;;;;;;;;7363651;19;759;-65
2023/06/09 03:27:13;;;;;;;;;;;;;;;;;;7363157;19;905;-66
2023/06/09 03:29:41;;;;;;;;;;;;;;;;;;7361987;19;861;-65
2023/06/09 03:32:09;;;;;;;;;;;;;;;;;;7358091;19;1305;-66
2023/06/09 03:34:40;;;;;;;;;;;;;;;;;;7364861;19;802;-66
2023/06/09 03:37:09;;;;;;;;;;;;;;;;;;7361520;19;1878;-64
2023/06/09 03:39:37;;;;;;;;;;;;;;;;;;7362094;19;803;-66
2023/06/09 03:42:05;;;;;;;;;;;;;;;;;;7362730;19;1988;-65
2023/06/09 03:44:33;;;;;;;;;;;;;;;;;;7362780;19;790;-65
2023/06/09 03:47:02;;;;;;;;;;;;;;;;;;7362916;19;869;-68
2023/06/09 03:49:30;;;;;;;;;;;;;;;;;;7362000;19;838;-66
2023/06/09 03:51:58;;;;;;;;;;;;;;;;;;7360337;19;1249;-67
2023/06/09 03:54:26;;;;;;;;;;;;;;;;;;7361854;19;810;-67
2023/06/09 03:56:55;;;;;;;;;;;;;;;;;;7359654;19;1841;-66
2023/06/09 03:59:23;;;;;;;;;;;;;;;;;;7361525;19;834;-66
2023/06/09 04:01:51;;;;;;;;;;;;;;;;;;7360574;19;1284;-64
2023/06/09 04:04:19;;;;;;;;;;;;;;;;;;7363204;19;779;-65
2023/06/09 04:06:48;;;;;;;;;;;;;;;;;;7361442;19;859;-66
2023/06/09 04:09:17;;;;;;;;;;;;;;;;;;7361651;19;801;-65
2023/06/09 04:11:45;;;;;;;;;;;;;;;;;;7360383;19;1399;-65
2023/06/09 04:14:14;;;;;;;;;;;;;;;;;;7362281;19;782;-65
2023/06/09 04:16:43;;;;;;;;;;;;;;;;;;7360885;19;1837;-65
2023/06/09 04:19:11;;;;;;;;;;;;;;;;;;7361463;19;1383;-66
2023/06/09 04:21:40;;;;;;;;;;;;;;;;;;7362127;19;1297;-64
2023/06/09 04:24:08;;;;;;;;;;;;;;;;;;7360934;19;783;-64
2023/06/09 04:26:38;;;;;;;;;;;;;;;;;;7361338;19;1112;-66
2023/06/09 04:29:09;;;;;;;;;;;;;;;;;;7360813;19;907;-65
2023/06/09 04:31:38;;;;;;;;;;;;;;;;;;7359817;19;1311;-65
2023/06/09 04:34:10;;;;;;;;;;;;;;;;;;7362331;19;799;-65
2023/06/09 04:36:38;;;;;;;;;;;;;;;;;;7359941;19;1868;-66
2023/06/09 04:39:07;;;;;;;;;;;;;;;;;;7363059;19;804;-64
2023/06/09 04:41:37;;;;;;;;;;;;;;;;;;7360225;19;1365;-65
2023/06/09 04:44:05;;;;;;;;;;;;;;;;;;7366358;19;806;-64
2023/06/09 04:46:37;;;;;;;;;;;;;;;;;;7367583;19;802;-65
2023/06/09 04:49:09;;;;;;;;;;;;;;;;;;7366301;19;905;-65
2023/06/09 04:51:46;;;;;;;;;;;;;;;;;;7366484;19;1388;-66
2023/06/09 04:54:15;;;;;;;;;;;;;;;;;;7365946;19;841;-65
2023/06/09 04:56:44;;;;;;;;;;;;;;;;;;7368637;19;1811;-65
2023/06/09 04:59:12;;;;;;;;;;;;;;;;;;7366896;19;797;-64
2023/06/09 05:01:40;;;;;;;;;;;;;;;;;;7367877;19;1728;-66
2023/06/09 05:04:08;;;;;;;;;;;;;;;;;;7366454;19;745;-66
2023/06/09 05:06:37;;;;;;;;;;;;;;;;;;7368295;19;1126;-66
2023/06/09 05:09:05;;;;;;;;;;;;;;;;;;7366609;19;803;-64
2023/06/09 05:11:33;;;;;;;;;;;;;;;;;;7365435;19;1302;-64
2023/06/09 05:14:02;;;;;;;;;;;;;;;;;;7366359;19;831;-66
2023/06/09 05:16:30;;;;;;;;;;;;;;;;;;7366643;19;1857;-65
2023/06/09 05:18:59;;;;;;;;;;;;;;;;;;7367539;19;2024;-66
2023/06/09 05:21:27;;;;;;;;;;;;;;;;;;7369790;19;1474;-65
2023/06/09 05:23:55;;;;;;;;;;;;;;;;;;7369948;19;2100;-65
2023/06/09 05:26:24;;;;;;;;;;;;;;;;;;7370405;19;1870;-66
2023/06/09 05:28:52;;;;;;;;;;;;;;;;;;7371008;19;1617;-65
2023/06/09 05:31:20;;;;;;;;;;;;;;;;;;7368230;19;1649;-65
2023/06/09 05:33:49;;;;;;;;;;;;;;;;;;7364498;19;2026;-65
2023/06/09 05:36:17;;;;;;;;;;;;;;;;;;7366406;19;1879;-66
2023/06/09 05:38:50;;;;;;;;;;;;;;;;;;7365396;19;915;-65
2023/06/09 05:41:18;;;;;;;;;;;;;;;;;;7365161;19;1340;-65
2023/06/09 05:43:46;;;;;;;;;;;;;;;;;;7367744;19;782;-65
2023/06/09 05:46:14;;;;;;;;;;;;;;;;;;7367296;19;815;-65
2023/06/09 05:48:42;;;;;;;;;;;;;;;;;;7366534;19;858;-65
2023/06/09 05:51:10;;;;;;;;;;;;;;;;;;7366247;19;1289;-64
2023/06/09 05:53:39;;;;;;;;;;;;;;;;;;7364919;19;748;-64
2023/06/09 05:56:07;;;;;;;;;;;;;;;;;;7364979;19;1886;-64
2023/06/09 05:58:35;;;;;;;;;;;;;;;;;;7363900;19;2022;-65
2023/06/09 06:01:03;;;;;;;;;;;;;;;;;;7369730;19;1561;-65
2023/06/09 06:03:33;;;;;;;;;;;;;;;;;;7366513;19;790;-65
2023/06/09 06:06:01;;;;;;;;;;;;;;;;;;7367168;19;829;-65
2023/06/09 06:08:29;;;;;;;;;;;;;;;;;;7365806;19;804;-64
2023/06/09 06:10:57;;;;;;;;;;;;;;;;;;7365829;19;1297;-65
2023/06/09 06:13:25;;;;;;;;;;;;;;;;;;7366527;19;898;-65
2023/06/09 06:15:53;;;;;;;;;;;;;;;;;;7366800;19;834;-64
2023/06/09 06:18:21;;;;;;;;;;;;;;;;;;7364448;19;1841;-65
2023/06/09 06:20:50;;;;;;;;;;;;;;;;;;7369471;19;1480;-65
2023/06/09 06:23:18;;;;;;;;;;;;;;;;;;7366020;19;890;-65
2023/06/09 06:25:46;;;;;;;;;;;;;;;;;;7366001;19;836;-64
2023/06/09 06:28:14;;;;;;;;;;;;;;;;;;7369463;19;2064;-64
2023/06/09 06:30:42;;;;;;;;;;;;;;;;;;7369368;19;1963;-64
2023/06/09 06:33:11;;;;;;;;;;;;;;;;;;7371496;19;1471;-66
2023/06/09 06:35:39;;;;;;;;;;;;;;;;;;7368467;19;1901;-65
2023/06/09 06:38:07;;;;;;;;;;;;;;;;;;7367327;19;1866;-65
2023/06/09 06:40:35;;;;;;;;;;;;;;;;;;7366957;19;1822;-63
2023/06/09 06:43:03;;;;;;;;;;;;;;;;;;7370176;19;1718;-64
2023/06/09 06:45:49;;;;;;;;;;;;;;;;;;7365378;19;820;-64
2023/06/09 06:48:17;;;;;;;;;;;;;;;;;;7365466;19;859;-64
2023/06/09 06:50:45;;;;;;;;;;;;;;;;;;7364992;19;2130;-65
2023/06/09 06:53:14;;;;;;;;;;;;;;;;;;7369708;19;1763;-65
2023/06/09 06:55:42;;;;;;;;;;;;;;;;;;7367874;19;2087;-65
2023/06/09 06:58:10;;;;;;;;;;;;;;;;;;7365937;19;1841;-64
2023/06/09 07:00:38;;;;;;;;;;;;;;;;;;7367898;19;1464;-64
2023/06/09 07:03:08;;;;;;;;;;;;;;;;;;7365426;19;736;-65
2023/06/09 07:05:37;;;;;;;;;;;;;;;;;;7365243;19;775;-65
2023/06/09 07:08:05;;;;;;;;;;;;;;;;;;7364430;19;723;-64
2023/06/09 07:10:34;;;;;;;;;;;;;;;;;;7364821;19;1282;-64
2023/06/09 07:13:02;;;;;;;;;;;;;;;;;;7367303;19;1068;-65
2023/06/09 07:15:30;;;;;;;;;;;;;;;;;;7362996;19;2005;-65
2023/06/09 07:17:58;;;;;;;;;;;;;;;;;;7363012;19;1902;-65
2023/06/09 07:20:26;;;;;;;;;;;;;;;;;;7367192;19;1750;-65
2023/06/09 07:22:54;;;;;;;;;;;;;;;;;;7361656;19;1514;-65
2023/06/09 07:25:22;;;;;;;;;;;;;;;;;;7367553;19;1628;-65
2023/06/09 07:27:50;;;;;;;;;;;;;;;;;;7364398;19;771;-65
2023/06/09 07:30:19;;;;;;;;;;;;;;;;;;7364750;19;779;-65
2023/06/09 07:32:47;;;;;;;;;;;;;;;;;;7361451;19;1345;-65
2023/06/09 07:35:15;;;;;;;;;;;;;;;;;;7363133;19;831;-65
2023/06/09 07:37:45;;;;;;;;;;;;;;;;;;7362132;19;1869;-64
2023/06/09 07:40:13;;;;;;;;;;;;;;;;;;7364256;19;822;-65
2023/06/09 07:42:41;;;;;;;;;;;;;;;;;;7361821;19;1284;-65
2023/06/09 07:45:10;;;;;;;;;;;;;;;;;;7364037;19;735;-65
2023/06/09 07:47:38;;;;;;;;;;;;;;;;;;7363631;19;850;-65
2023/06/09 07:50:06;;;;;;;;;;;;;;;;;;7363908;19;823;-63
2023/06/09 07:52:36;;;;;;;;;;;;;;;;;;7360714;19;1318;-65
2023/06/09 07:55:05;;;;;;;;;;;;;;;;;;7364194;19;767;-65
2023/06/09 07:57:33;;;;;;;;;;;;;;;;;;7362870;19;1838;-65
2023/06/09 08:00:01;;;;;;;;;;;;;;;;;;7363292;19;822;-65
2023/06/09 08:02:30;;;;;;;;;;;;;;;;;;7361010;19;1304;-65
2023/06/09 08:04:59;;;;;;;;;;;;;;;;;;7363595;19;874;-66
2023/06/09 08:07:28;;;;;;;;;;;;;;;;;;7363480;19;869;-65
2023/06/09 08:09:56;;;;;;;;;;;;;;;;;;7362577;19;972;-65
2023/06/09 08:12:24;;;;;;;;;;;;;;;;;;7361310;19;1320;-66
2023/06/09 08:14:52;;;;;;;;;;;;;;;;;;7363456;19;854;-66
2023/06/09 08:17:20;;;;;;;;;;;;;;;;;;7364538;19;1849;-65
2023/06/09 08:19:48;;;;;;;;;;;;;;;;;;7369088;19;765;-64
2023/06/09 08:22:17;;;;;;;;;;;;;;;;;;7367588;19;1335;-64
2023/06/09 08:24:46;;;;;;;;;;;;;;;;;;7368593;19;883;-64
2023/06/09 08:27:14;;;;;;;;;;;;;;;;;;7369348;19;942;-65
2023/06/09 08:29:42;;;;;;;;;;;;;;;;;;7368191;19;802;-66
2023/06/09 08:32:10;;;;;;;;;;;;;;;;;;7367509;19;1263;-65
2023/06/09 08:34:38;;;;;;;;;;;;;;;;;;7369130;19;792;-65
2023/06/09 08:37:07;;;;;;;;;;;;;;;;;;7369158;19;803;-66
2023/06/09 08:39:35;;;;;;;;;;;;;;;;;;7366751;19;1878;-67
2023/06/09 08:42:03;;;;;;;;;;;;;;;;;;7367937;19;1351;-63
2023/06/09 08:44:31;;;;;;;;;;;;;;;;;;7368816;19;856;-65
2023/06/09 08:47:00;;;;;;;;;;;;;;;;;;7368935;19;811;-65
2023/06/09 08:49:28;;;;;;;;;;;;;;;;;;7367934;19;840;-65
2023/06/09 08:51:56;;;;;;;;;;;;;;;;;;7367822;19;1294;-66
2023/06/09 08:54:24;;;;;;;;;;;;;;;;;;7368825;19;827;-65
2023/06/09 08:56:52;;;;;;;;;;;;;;;;;;7368400;19;883;-66
2023/06/09 08:59:21;;;;;;;;;;;;;;;;;;7366178;19;1862;-66
2023/06/09 09:01:49;;;;;;;;;;;;;;;;;;7365737;19;1325;-66
2023/06/09 09:04:17;;;;;;;;;;;;;;;;;;7369286;19;776;-66
2023/06/09 09:06:45;;;;;;;;;;;;;;;;;;7368784;19;847;-66
2023/06/09 09:09:13;;;;;;;;;;;;;;;;;;7368670;19;866;-66
2023/06/09 09:11:41;;;;;;;;;;;;;;;;;;7367510;19;1315;-66
2023/06/09 09:14:10;;;;;;;;;;;;;;;;;;7368489;19;776;-66
2023/06/09 09:16:38;;;;;;;;;;;;;;;;;;7368316;19;775;-66
2023/06/09 09:19:06;;;;;;;;;;;;;;;;;;7366335;19;1852;-65
2023/06/09 09:21:34;;;;;;;;;;;;;;;;;;7367721;19;1341;-65
2023/06/09 09:24:04;;;;;;;;;;;;;;;;;;7368114;19;827;-64
2023/06/09 09:26:32;;;;;;;;;;;;;;;;;;7368288;19;915;-66
2023/06/09 09:29:00;;;;;;;;;;;;;;;;;;7364425;19;831;-66
2023/06/09 09:31:28;;;;;;;;;;;;;;;;;;7367131;19;1376;-66
2023/06/09 09:33:56;;;;;;;;;;;;;;;;;;7367870;19;929;-66
2023/06/09 09:36:25;;;;;;;;;;;;;;;;;;7368063;19;820;-64
2023/06/09 09:38:53;;;;;;;;;;;;;;;;;;7365917;19;1857;-66
2023/06/09 09:41:21;;;;;;;;;;;;;;;;;;7366086;19;1336;-65
2023/06/09 09:43:49;;;;;;;;;;;;;;;;;;7366003;19;858;-66
2023/06/09 09:46:18;;;;;;;;;;;;;;;;;;7366979;19;809;-66
2023/06/09 09:48:47;;;;;;;;;;;;;;;;;;7366930;19;871;-66
2023/06/09 09:51:15;;;;;;;;;;;;;;;;;;7365117;19;1284;-65
2023/06/09 09:53:43;;;;;;;;;;;;;;;;;;7368030;19;860;-66
2023/06/09 09:56:12;;;;;;;;;;;;;;;;;;7367530;19;870;-65
2023/06/09 09:58:40;;;;;;;;;;;;;;;;;;7365232;19;1862;-66
2023/06/09 10:01:08;;;;;;;;;;;;;;;;;;7365704;19;1285;-66
2023/06/09 10:03:36;;;;;;;;;;;;;;;;;;7366951;19;822;-65
2023/06/09 10:06:04;;;;;;;;;;;;;;;;;;7367520;19;828;-66
2023/06/09 10:08:32;;;;;;;;;;;;;;;;;;7366909;19;828;-66
2023/06/09 10:11:01;;;;;;;;;;;;;;;;;;7366069;19;1355;-66
2023/06/09 10:13:29;;;;;;;;;;;;;;;;;;7367157;19;905;-66
2023/06/09 10:15:57;;;;;;;;;;;;;;;;;;7366781;19;872;-66
2023/06/09 10:18:25;;;;;;;;;;;;;;;;;;7365002;19;1845;-67
2023/06/09 10:20:53;;;;;;;;;;;;;;;;;;7363533;19;1755;-66
2023/06/09 10:23:21;;;;;;;;;;;;;;;;;;7369348;19;2176;-66
2023/06/09 10:25:50;;;;;;;;;;;;;;;;;;7370744;19;1846;-66
2023/06/09 10:28:18;;;;;;;;;;;;;;;;;;7370191;19;1477;-66
2023/06/09 10:30:46;;;;;;;;;;;;;;;;;;7366113;19;1997;-66
2023/06/09 10:33:14;;;;;;;;;;;;;;;;;;7368601;19;1810;-65
2023/06/09 10:35:43;;;;;;;;;;;;;;;;;;7369870;19;1928;-65
2023/06/09 10:38:11;;;;;;;;;;;;;;;;;;7367137;19;1855;-66
2023/06/09 10:40:39;;;;;;;;;;;;;;;;;;7365164;19;2005;-67
2023/06/09 10:43:07;;;;;;;;;;;;;;;;;;7369158;19;1799;-66
2023/06/09 10:45:35;;;;;;;;;;;;;;;;;;7369672;19;1868;-66
2023/06/09 10:48:03;;;;;;;;;;;;;;;;;;7368284;19;1677;-66
2023/06/09 10:50:32;;;;;;;;;;;;;;;;;;7365202;19;1870;-66
2023/06/09 10:53:00;;;;;;;;;;;;;;;;;;7369000;19;1633;-66
2023/06/09 10:55:28;;;;;;;;;;;;;;;;;;7369455;19;1964;-66
2023/06/09 10:57:56;;;;;;;;;;;;;;;;;;7365346;19;1849;-65
2023/06/09 11:00:25;;;;;;;;;;;;;;;;;;7366974;19;2082;-65
2023/06/09 11:02:53;;;;;;;;;;;;;;;;;;7366230;19;1694;-65
2023/06/09 11:05:21;;;;;;;;;;;;;;;;;;7369996;19;1623;-65
2023/06/09 11:07:49;;;;;;;;;;;;;;;;;;7364678;19;825;-65
2023/06/09 11:10:18;;;;;;;;;;;;;;;;;;7368050;19;1974;-63
2023/06/09 11:12:46;;;;;;;;;;;;;;;;;;7364230;19;2069;-67
2023/06/09 11:15:15;;;;;;;;;;;;;;;;;;7368437;19;1471;-65
2023/06/09 11:17:43;;;;;;;;;;;;;;;;;;7364241;19;869;-65
2023/06/09 11:20:11;;;;;;;;;;;;;;;;;;7362693;19;1854;-65
2023/06/09 11:22:39;;;;;;;;;;;;;;;;;;7362723;19;1276;-65
2023/06/09 11:25:08;;;;;;;;;;;;;;;;;;7364716;19;880;-64
2023/06/09 11:27:36;;;;;;;;;;;;;;;;;;7364452;19;809;-64
2023/06/09 11:30:04;;;;;;;;;;;;;;;;;;7364885;19;825;-65
2023/06/09 11:32:35;;;;;;;;;;;;;;;;;;7361733;19;1304;-65
2023/06/09 11:35:05;;;;;;;;;;;;;;;;;;7364600;19;696;-65
2023/06/09 11:37:33;;;;;;;;;;;;;;;;;;7362925;19;1730;-64
2023/06/09 11:40:01;;;;;;;;;;;;;;;;;;7361766;19;1838;-65
2023/06/09 11:42:29;;;;;;;;;;;;;;;;;;7366007;19;1319;-65
2023/06/09 11:44:57;;;;;;;;;;;;;;;;;;7368066;19;1761;-65
2023/06/09 11:47:26;;;;;;;;;;;;;;;;;;7364149;19;877;-65
2023/06/09 11:49:54;;;;;;;;;;;;;;;;;;7363067;19;779;-65
2023/06/09 11:52:22;;;;;;;;;;;;;;;;;;7359558;19;1262;-65
2023/06/09 11:54:50;;;;;;;;;;;;;;;;;;7364112;19;829;-64
2023/06/09 11:57:18;;;;;;;;;;;;;;;;;;7367289;19;1816;-65
2023/06/09 11:59:47;;;;;;;;;;;;;;;;;;7361225;19;1853;-64
2023/06/09 12:02:15;;;;;;;;;;;;;;;;;;7362381;19;1376;-64
2023/06/09 12:04:45;;;;;;;;;;;;;;;;;;7363787;19;893;-64
2023/06/09 12:07:14;;;;;;;;;;;;;;;;;;7363493;19;824;-64
2023/06/09 12:09:42;;;;;;;;;;;;;;;;;;7362277;19;810;-65
2023/06/09 12:12:11;;;;;;;;;;;;;;;;;;7361384;19;1328;-66
2023/06/09 12:14:39;;;;;;;;;;;;;;;;;;7363494;19;786;-66
2023/06/09 12:17:09;;;;;;;;;;;;;;;;;;7364453;19;1045;-66
2023/06/09 12:19:37;;;;;;;;;;;;;;;;;;7361544;19;1859;-65
2023/06/09 12:22:05;;;;;;;;;;;;;;;;;;7359838;19;1274;-65
2023/06/09 12:24:33;;;;;;;;;;;;;;;;;;7363897;19;825;-65
2023/06/09 12:27:02;;;;;;;;;;;;;;;;;;7363026;19;862;-65
2023/06/09 12:29:30;;;;;;;;;;;;;;;;;;7362140;19;794;-66
2023/06/09 12:31:58;;;;;;;;;;;;;;;;;;7362176;19;1242;-66
2023/06/09 12:34:26;;;;;;;;;;;;;;;;;;7367356;19;1866;-66
2023/06/09 12:36:55;;;;;;;;;;;;;;;;;;7362877;19;874;-66
2023/06/09 12:39:23;;;;;;;;;;;;;;;;;;7360768;19;1849;-65
2023/06/09 12:41:51;;;;;;;;;;;;;;;;;;7362140;19;1355;-65
2023/06/09 12:44:19;;;;;;;;;;;;;;;;;;7362363;19;858;-64
2023/06/09 12:46:51;;;;;;;;;;;;;;;;;;7361950;19;857;-64
2023/06/09 12:49:19;;;;;;;;;;;;;;;;;;7361014;19;776;-66
2023/06/09 12:51:47;;;;;;;;;;;;;;;;;;7362664;19;1271;-66
2023/06/09 12:54:15;;;;;;;;;;;;;;;;;;7362523;19;2156;-66
2023/06/09 12:56:44;;;;;;;;;;;;;;;;;;7361727;19;851;-66
2023/06/09 12:59:12;;;;;;;;;;;;;;;;;;7361016;19;1842;-66
2023/06/09 13:01:40;;;;;;;;;;;;;;;;;;7360458;19;1505;-66
2023/06/09 13:04:08;;;;;;;;;;;;;;;;;;7366427;19;807;-66
2023/06/09 13:06:36;;;;;;;;;;;;;;;;;;7368566;19;828;-65
2023/06/09 13:09:04;;;;;;;;;;;;;;;;;;7369633;19;1797;-66
2023/06/09 13:11:32;;;;;;;;;;;;;;;;;;7368497;19;1679;-66
2023/06/09 13:14:00;;;;;;;;;;;;;;;;;;7368387;19;1784;-65
2023/06/09 13:16:29;;;;;;;;;;;;;;;;;;7369639;19;1901;-66
2023/06/09 13:18:57;;;;;;;;;;;;;;;;;;7368131;19;1857;-65
2023/06/09 13:21:28;;;;;;;;;;;;;;;;;;7371263;19;1429;-65
2023/06/09 13:23:57;;;;;;;;;;;;;;;;;;7368725;19;767;-66
2023/06/09 13:26:26;;;;;;;;;;;;;;;;;;7367917;19;793;-65
2023/06/09 13:28:54;;;;;;;;;;;;;;;;;;7367644;19;850;-65
2023/06/09 13:31:22;;;;;;;;;;;;;;;;;;7367197;19;1316;-65
2023/06/09 13:33:50;;;;;;;;;;;;;;;;;;7369628;19;1516;-65
2023/06/09 13:36:18;;;;;;;;;;;;;;;;;;7371329;19;1800;-66
2023/06/09 13:38:46;;;;;;;;;;;;;;;;;;7370360;19;2110;-66
2023/06/09 13:41:14;;;;;;;;;;;;;;;;;;7367572;19;1337;-66
2023/06/09 13:43:43;;;;;;;;;;;;;;;;;;7371856;19;817;-65
2023/06/09 13:46:11;;;;;;;;;;;;;;;;;;7367808;19;783;-66
2023/06/09 13:48:39;;;;;;;;;;;;;;;;;;7367177;19;815;-66
2023/06/09 13:51:07;;;;;;;;;;;;;;;;;;7369468;19;1816;-66
2023/06/09 13:53:35;;;;;;;;;;;;;;;;;;7367776;19;795;-66
2023/06/09 13:56:03;;;;;;;;;;;;;;;;;;7367321;19;821;-66
2023/06/09 13:58:32;;;;;;;;;;;;;;;;;;7366041;19;836;-66
2023/06/09 14:01:00;;;;;;;;;;;;;;;;;;7369412;19;1841;-66
2023/06/09 14:03:28;;;;;;;;;;;;;;;;;;7366864;19;810;-66
2023/06/09 14:05:56;;;;;;;;;;;;;;;;;;7367336;19;815;-66
2023/06/09 14:08:25;;;;;;;;;;;;;;;;;;7366770;19;814;-66
2023/06/09 14:10:53;;;;;;;;;;;;;;;;;;7366401;19;1349;-67
2023/06/09 14:13:21;;;;;;;;;;;;;;;;;;7367046;19;882;-66
2023/06/09 14:15:49;;;;;;;;;;;;;;;;;;7364336;19;770;-66
2023/06/09 14:18:18;;;;;;;;;;;;;;;;;;7366296;19;776;-67
2023/06/09 14:20:46;;;;;;;;;;;;;;;;;;7364131;19;1847;-67
2023/06/09 14:23:15;;;;;;;;;;;;;;;;;;7366528;19;881;-67
2023/06/09 14:25:43;;;;;;;;;;;;;;;;;;7366606;19;811;-66
2023/06/09 14:28:11;;;;;;;;;;;;;;;;;;7368559;19;1637;-66
2023/06/09 14:30:39;;;;;;;;;;;;;;;;;;7366427;19;1288;-66
2023/06/09 14:33:07;;;;;;;;;;;;;;;;;;7367125;19;831;-66
2023/06/09 14:35:36;;;;;;;;;;;;;;;;;;7366211;19;815;-66
2023/06/09 14:38:04;;;;;;;;;;;;;;;;;;7365335;19;917;-66
2023/06/09 14:40:34;;;;;;;;;;;;;;;;;;7363988;19;1859;-67
2023/06/09 14:43:02;;;;;;;;;;;;;;;;;;7366358;19;838;-66
2023/06/09 14:45:30;;;;;;;;;;;;;;;;;;7366255;19;743;-66
2023/06/09 14:47:59;;;;;;;;;;;;;;;;;;7365161;19;814;-65
2023/06/09 14:50:27;;;;;;;;;;;;;;;;;;7367600;19;975;-65
2023/06/09 14:52:56;;;;;;;;;;;;;;;;;;7363614;19;1257;-66
2023/06/09 14:55:24;;;;;;;;;;;;;;;;;;7366475;19;806;-66
2023/06/09 14:57:52;;;;;;;;;;;;;;;;;;7365288;19;788;-66
2023/06/09 15:00:20;;;;;;;;;;;;;;;;;;7363682;19;1841;-67
2023/06/09 15:02:50;;;;;;;;;;;;;;;;;;7362661;19;1491;-66
2023/06/09 15:05:18;;;;;;;;;;;;;;;;;;7365694;19;845;-66
2023/06/09 15:07:46;;;;;;;;;;;;;;;;;;7366960;19;856;-67
2023/06/09 15:10:14;;;;;;;;;;;;;;;;;;7365358;19;874;-67
2023/06/09 15:12:43;;;;;;;;;;;;;;;;;;7362916;19;1417;-66
2023/06/09 15:15:11;;;;;;;;;;;;;;;;;;7365598;19;865;-66
2023/06/09 15:17:39;;;;;;;;;;;;;;;;;;7365018;19;787;-67
2023/06/09 15:20:09;;;;;;;;;;;;;;;;;;7364451;19;1826;-65
2023/06/09 15:22:38;;;;;;;;;;;;;;;;;;7362921;19;1289;-65
2023/06/09 15:25:06;;;;;;;;;;;;;;;;;;7368549;19;855;-67
2023/06/09 15:27:34;;;;;;;;;;;;;;;;;;7366854;19;1820;-65
2023/06/09 15:30:02;;;;;;;;;;;;;;;;;;7365004;19;847;-65
2023/06/09 15:32:30;;;;;;;;;;;;;;;;;;7363549;19;1268;-65
2023/06/09 15:34:58;;;;;;;;;;;;;;;;;;7365237;19;854;-65
2023/06/09 15:37:26;;;;;;;;;;;;;;;;;;7365257;19;1671;-65
2023/06/09 15:39:55;;;;;;;;;;;;;;;;;;7366713;19;1845;-65
2023/06/09 15:42:23;;;;;;;;;;;;;;;;;;7361909;19;1305;-68
2023/06/09 15:44:52;;;;;;;;;;;;;;;;;;7366657;19;1867;-64
2023/06/09 15:47:20;;;;;;;;;;;;;;;;;;7367167;19;1885;-66
2023/06/09 15:49:48;;;;;;;;;;;;;;;;;;7367217;19;1740;-65
2023/06/09 15:52:16;;;;;;;;;;;;;;;;;;7364649;19;1315;-66
2023/06/09 15:54:44;;;;;;;;;;;;;;;;;;7363496;19;686;-66
2023/06/09 15:57:12;;;;;;;;;;;;;;;;;;7364078;19;811;-66
2023/06/09 15:59:40;;;;;;;;;;;;;;;;;;7366487;19;1815;-66
2023/06/09 16:02:09;;;;;;;;;;;;;;;;;;7362994;19;1831;-65
2023/06/09 16:04:38;;;;;;;;;;;;;;;;;;7363833;19;737;-66
2023/06/09 16:07:06;;;;;;;;;;;;;;;;;;7363351;19;839;-66
2023/06/09 16:09:34;;;;;;;;;;;;;;;;;;7363417;19;817;-66
2023/06/09 16:12:02;;;;;;;;;;;;;;;;;;7361598;19;1278;-66
2023/06/09 16:14:30;;;;;;;;;;;;;;;;;;7364317;19;2074;-66
2023/06/09 16:16:58;;;;;;;;;;;;;;;;;;7367415;19;1371;-66
2023/06/09 16:19:27;;;;;;;;;;;;;;;;;;7362487;19;797;-66
2023/06/09 16:21:55;;;;;;;;;;;;;;;;;;7360923;19;1878;-66
2023/06/09 16:24:23;;;;;;;;;;;;;;;;;;7363295;19;812;-65
2023/06/09 16:26:51;;;;;;;;;;;;;;;;;;7363526;19;953;-65
2023/06/09 16:29:20;;;;;;;;;;;;;;;;;;7363299;19;962;-65
2023/06/09 16:31:48;;;;;;;;;;;;;;;;;;7361647;19;1317;-64
2023/06/09 16:34:16;;;;;;;;;;;;;;;;;;7363280;19;848;-64
2023/06/09 16:36:45;;;;;;;;;;;;;;;;;;7363718;19;845;-65
2023/06/09 16:39:13;;;;;;;;;;;;;;;;;;7366592;19;813;-65
2023/06/09 16:41:41;;;;;;;;;;;;;;;;;;7367862;19;1841;-65
2023/06/09 16:44:09;;;;;;;;;;;;;;;;;;7370294;19;1723;-65
2023/06/09 16:46:37;;;;;;;;;;;;;;;;;;7373141;19;1623;-65
2023/06/09 16:49:05;;;;;;;;;;;;;;;;;;7369564;19;822;-65
2023/06/09 16:51:33;;;;;;;;;;;;;;;;;;7372627;19;1586;-66
2023/06/09 16:54:01;;;;;;;;;;;;;;;;;;7368893;19;800;-66
2023/06/09 16:56:30;;;;;;;;;;;;;;;;;;7373096;19;958;-66
2023/06/09 16:58:58;;;;;;;;;;;;;;;;;;7368140;19;883;-66
2023/06/09 17:01:26;;;;;;;;;;;;;;;;;;7364472;19;1845;-65
2023/06/09 17:03:54;;;;;;;;;;;;;;;;;;7369282;19;794;-67
2023/06/09 17:06:22;;;;;;;;;;;;;;;;;;7371866;19;1903;-66
2023/06/09 17:08:51;;;;;;;;;;;;;;;;;;7368191;19;2143;-67
2023/06/09 17:11:20;;;;;;;;;;;;;;;;;;7370238;19;1659;-66
2023/06/09 17:13:48;;;;;;;;;;;;;;;;;;7371700;19;1654;-65
2023/06/09 17:16:17;;;;;;;;;;;;;;;;;;7368598;19;797;-66
2023/06/09 17:18:45;;;;;;;;;;;;;;;;;;7367678;19;1912;-65
2023/06/09 17:21:13;;;;;;;;;;;;;;;;;;7370832;19;1857;-66